Time,TemperatureF,DewpointF,PressureIn,WindDirection,WindDirectionDegrees,WindSpeedMPH,WindSpeedGustMPH,Humidity,HourlyPrecipIn,Conditions,Clouds,dailyrainin,SoftwareType,DateUTC
2013-07-23 00:04:00,72.9,60.9,29.78,SSW,197,8.1,8.1,66,0.00,OVC,,0.00,WeatherDisplay:10.37,2013-07-23 07:04:00,
2013-07-23 00:10:00,72.8,59.5,29.78,SSW,200,8.1,8.1,63,0.00,OVC,,0.00,WeatherDisplay:10.37,2013-07-23 07:10:00,
2013-07-23 00:15:00,73.4,58.2,29.78,SSW,204,6.0,8.0,59,0.00,CLR,,0.00,WeatherDisplay:10.37,2013-07-23 07:15:00,
2013-07-23 00:20:00,73.7,54.9,29.78,SSW,204,6.0,7.0,52,0.00,CLR,,0.00,WeatherDisplay:10.37,2013-07-23 07:20:00,
2013-07-23 00:25:00,74.1,53.2,29.78,South,191,7.0,9.0,48,0.00,CLR,,0.00,WeatherDisplay:10.37,2013-07-23 07:25:00,
2013-07-23 00:30:00,74.6,53.0,29.78,South,179,8.0,12.0,47,0.00,CLR,,0.00,WeatherDisplay:10.37,2013-07-23 07:30:00,
2013-07-23 00:35:00,74.7,53.1,29.78,South,173,10.4,10.4,47,0.00,OVC,,0.00,WeatherDisplay:10.37,2013-07-23 07:35:00,
2013-07-23 00:40:00,74.3,53.9,29.78,South,169,9.2,9.2,49,0.00,OVC,,0.00,WeatherDisplay:10.37,2013-07-23 07:40:00,
2013-07-23 00:45:00,73.5,53.7,29.78,South,169,8.1,8.1,50,0.00,OVC,,0.00,WeatherDisplay:10.37,2013-07-23 07:45:00,
2013-07-23 00:50:00,73.1,53.9,29.78,South,182,6.0,6.0,51,0.00,CLR,,0.00,WeatherDisplay:10.37,2013-07-23 07:50:00,
2013-07-23 00:55:00,72.7,54.1,29.78,South,179,5.8,5.8,52,0.00,OVC,,0.00,WeatherDisplay:10.37,2013-07-23 07:55:00,
2013-07-23 01:00:00,72.4,55.8,29.78,South,179,5.8,5.8,56,0.00,OVC,,0.00,WeatherDisplay:10.37,2013-07-23 08:00:00,
2013-07-23 01:05:00,72.8,58.1,29.78,South,179,3.5,3.5,60,0.00,OVC,,0.00,WeatherDisplay:10.37,2013-07-23 08:05:00,
2013-07-23 01:10:00,72.7,55.1,29.78,South,179,2.3,0.0,54,0.00,OVC,,0.00,WeatherDisplay:10.37,2013-07-23 08:10:00,
2013-07-23 01:15:00,72.1,57.0,29.78,South,179,2.3,2.3,59,0.00,OVC,,0.00,WeatherDisplay:10.37,2013-07-23 08:15:00,
2013-07-23 01:20:00,72.0,56.9,29.78,South,179,0.0,0.0,59,0.00,OVC,,0.00,WeatherDisplay:10.37,2013-07-23 08:20:00,
2013-07-23 01:26:00,71.5,55.0,29.78,South,179,3.5,3.5,56,0.00,OVC,,0.00,WeatherDisplay:10.37,2013-07-23 08:26:00,
2013-07-23 01:31:00,71.2,54.2,29.78,SSE,160,4.0,4.0,55,0.00,OVC,,0.00,WeatherDisplay:10.37,2013-07-23 08:31:00,
2013-07-23 01:36:00,71.3,54.8,29.78,SSE,160,1.1,0.0,56,0.00,OVC,,0.00,WeatherDisplay:10.37,2013-07-23 08:36:00,
2013-07-23 01:41:00,71.5,56.4,29.78,SSE,160,0.0,0.0,59,0.00,OVC,,0.00,WeatherDisplay:10.37,2013-07-23 08:41:00,
2013-07-23 01:46:00,71.5,54.0,29.79,SSE,160,2.3,2.3,54,0.00,OVC,,0.00,WeatherDisplay:10.37,2013-07-23 08:46:00,
2013-07-23 01:51:00,71.5,55.0,29.79,SSE,160,0.0,0.0,56,0.00,OVC,,0.00,WeatherDisplay:10.37,2013-07-23 08:51:00,
2013-07-23 01:56:00,71.4,56.8,29.79,SSE,160,0.0,0.0,60,0.00,OVC,,0.00,WeatherDisplay:10.37,2013-07-23 08:56:00,
2013-07-23 02:02:00,71.4,56.8,29.79,SSE,160,0.0,0.0,60,0.00,CLR,,0.00,WeatherDisplay:10.37,2013-07-23 09:02:00,
2013-07-23 02:07:00,71.3,53.8,29.79,SSE,160,0.0,0.0,54,0.00,OVC,,0.00,WeatherDisplay:10.37,2013-07-23 09:07:00,
2013-07-23 02:12:00,71.1,54.6,29.79,SSE,160,0.0,0.0,56,0.00,OVC,,0.00,WeatherDisplay:10.37,2013-07-23 09:12:00,
2013-07-23 02:17:00,70.7,53.7,29.79,SSE,160,0.0,0.0,55,0.00,OVC,,0.00,WeatherDisplay:10.37,2013-07-23 09:17:00,
2013-07-23 02:22:00,70.6,55.1,29.79,SSE,160,0.0,0.0,58,0.00,OVC,,0.00,WeatherDisplay:10.37,2013-07-23 09:22:00,
2013-07-23 02:27:00,70.7,54.2,29.79,SSE,160,3.5,3.5,56,0.00,OVC,,0.00,WeatherDisplay:10.37,2013-07-23 09:27:00,
2013-07-23 02:32:00,71.0,54.0,29.79,SSE,160,3.5,3.5,55,0.00,OVC,,0.00,WeatherDisplay:10.37,2013-07-23 09:32:00,
2013-07-23 02:37:00,70.9,52.9,29.79,SSE,165,2.0,2.0,53,0.00,OVC,,0.00,WeatherDisplay:10.37,2013-07-23 09:37:00,
2013-07-23 02:42:00,70.2,53.8,29.79,NW,314,2.3,2.3,56,0.00,OVC,,0.00,WeatherDisplay:10.37,2013-07-23 09:42:00,
2013-07-23 02:47:00,70.1,53.7,29.79,NW,315,4.0,4.0,56,0.00,OVC,,0.00,WeatherDisplay:10.37,2013-07-23 09:47:00,
2013-07-23 02:52:00,69.7,54.7,29.79,NW,325,3.5,3.5,59,0.00,OVC,,0.00,WeatherDisplay:10.37,2013-07-23 09:52:00,
2013-07-23 02:57:00,70.9,53.4,29.79,NW,312,3.5,3.5,54,0.00,OVC,,0.00,WeatherDisplay:10.37,2013-07-23 09:57:00,
2013-07-23 03:02:00,72.9,53.2,29.79,South,179,7.0,7.0,50,0.00,OVC,,0.00,WeatherDisplay:10.37,2013-07-23 10:02:00,
2013-07-23 03:08:00,73.3,52.4,29.79,South,190,10.4,10.4,48,0.00,OVC,,0.00,WeatherDisplay:10.37,2013-07-23 10:08:00,
2013-07-23 03:13:00,74.2,52.7,29.79,SSE,157,9.2,9.2,47,0.00,OVC,,0.00,WeatherDisplay:10.37,2013-07-23 10:13:00,
2013-07-23 03:18:00,73.8,52.3,29.79,SSE,168,6.9,6.9,47,0.00,OVC,,0.00,WeatherDisplay:10.37,2013-07-23 10:18:00,
2013-07-23 03:23:00,73.0,52.1,29.80,SSE,163,6.0,6.0,48,0.00,OVC,,0.00,WeatherDisplay:10.37,2013-07-23 10:23:00,
2013-07-23 03:28:00,72.2,52.0,29.80,SSE,161,5.8,5.8,49,0.00,OVC,,0.00,WeatherDisplay:10.37,2013-07-23 10:28:00,
2013-07-23 03:33:00,71.7,52.1,29.80,North,5,4.0,4.0,50,0.00,OVC,,0.00,WeatherDisplay:10.37,2013-07-23 10:33:00,
2013-07-23 03:38:00,71.7,53.1,29.81,North,351,6.0,6.0,52,0.00,OVC,,0.00,WeatherDisplay:10.37,2013-07-23 10:38:00,
2013-07-23 03:44:00,71.8,54.3,29.81,North,5,3.5,3.5,54,0.00,OVC,,0.00,WeatherDisplay:10.37,2013-07-23 10:44:00,
2013-07-23 03:49:00,71.5,53.5,29.81,NE,40,4.6,4.6,53,0.00,OVC,,0.00,WeatherDisplay:10.37,2013-07-23 10:49:00,
2013-07-23 03:54:00,71.8,53.2,29.81,NE,43,5.0,5.0,52,0.00,OVC,,0.00,WeatherDisplay:10.37,2013-07-23 10:54:00,
2013-07-23 03:57:00,71.9,54.3,29.81,NE,44,5.0,5.0,54,0.00,OVC,,0.00,WeatherDisplay:10.37,2013-07-23 10:57:00,
2013-07-23 04:02:00,72.3,60.3,29.81,NE,43,5.0,5.0,66,0.00,OVC,,0.00,WeatherDisplay:10.37,2013-07-23 11:02:00,
2013-07-23 04:07:00,72.6,60.6,29.81,NE,36,5.8,5.8,66,0.00,OVC,,0.00,WeatherDisplay:10.37,2013-07-23 11:07:00,
2013-07-23 04:12:00,73.0,61.8,29.81,North,355,4.6,4.6,68,0.00,OVC,,0.00,WeatherDisplay:10.37,2013-07-23 11:12:00,
2013-07-23 04:18:00,73.0,61.0,29.81,North,355,2.3,0.0,66,0.00,OVC,,0.00,WeatherDisplay:10.37,2013-07-23 11:18:00,
2013-07-23 04:23:00,72.9,61.3,29.81,North,355,2.3,2.3,67,0.00,OVC,,0.00,WeatherDisplay:10.37,2013-07-23 11:23:00,
2013-07-23 04:28:00,72.9,62.1,29.81,North,355,2.3,2.3,69,0.00,OVC,,0.00,WeatherDisplay:10.37,2013-07-23 11:28:00,
2013-07-23 04:33:00,72.8,62.4,29.81,NE,48,3.5,3.5,70,0.00,OVC,,0.00,WeatherDisplay:10.37,2013-07-23 11:33:00,
2013-07-23 04:38:00,72.6,62.7,29.81,NE,49,3.5,3.5,71,0.00,CLR,,0.00,WeatherDisplay:10.37,2013-07-23 11:38:00,
2013-07-23 04:43:00,72.5,63.7,29.80,ENE,59,4.0,4.0,74,0.00,OVC,,0.00,WeatherDisplay:10.37,2013-07-23 11:43:00,
2013-07-23 04:48:00,72.5,63.7,29.81,ENE,59,3.5,3.5,74,0.00,OVC,,0.00,WeatherDisplay:10.37,2013-07-23 11:48:00,
2013-07-23 04:54:00,72.4,64.0,29.80,ENE,59,4.6,4.6,75,0.00,OVC,,0.00,WeatherDisplay:10.37,2013-07-23 11:54:00,
2013-07-23 04:59:00,72.3,64.3,29.81,ENE,59,3.5,3.5,76,0.00,OVC,,0.00,WeatherDisplay:10.37,2013-07-23 11:59:00,
2013-07-23 05:04:00,71.5,62.4,29.81,ENE,61,3.5,3.5,73,0.00,OVC,,0.00,WeatherDisplay:10.37,2013-07-23 12:04:00,
2013-07-23 05:09:00,71.2,63.2,29.81,ESE,103,4.0,4.0,76,0.00,OVC,,0.00,WeatherDisplay:10.37,2013-07-23 12:09:00,
2013-07-23 05:14:00,71.0,61.5,29.81,ESE,103,3.5,3.5,72,0.00,OVC,,0.00,WeatherDisplay:10.37,2013-07-23 12:14:00,
2013-07-23 05:19:00,70.6,62.3,29.81,ESE,103,4.0,4.0,75,0.00,OVC,,0.00,WeatherDisplay:10.37,2013-07-23 12:19:00,
2013-07-23 05:25:00,70.6,62.7,29.81,ESE,104,5.0,5.0,76,0.00,OVC,,0.00,WeatherDisplay:10.37,2013-07-23 12:25:00,
2013-07-23 05:30:00,70.6,62.6,29.81,ESE,111,5.0,5.0,76,0.00,CLR,,0.00,WeatherDisplay:10.37,2013-07-23 12:30:00,
2013-07-23 05:35:00,70.8,62.8,29.81,ESE,117,3.0,5.0,76,0.00,CLR,,0.00,WeatherDisplay:10.37,2013-07-23 12:35:00,
2013-07-23 05:40:00,70.4,61.3,29.81,SE,132,2.0,3.0,73,0.00,CLR,,0.00,WeatherDisplay:10.37,2013-07-23 12:40:00,
2013-07-23 05:45:00,70.2,62.3,29.81,SE,134,2.3,0.0,76,0.00,OVC,,0.00,WeatherDisplay:10.37,2013-07-23 12:45:00,
2013-07-23 05:50:00,70.1,61.0,29.81,SE,134,1.0,1.0,73,0.00,OVC,,0.00,WeatherDisplay:10.37,2013-07-23 12:50:00,
2013-07-23 05:55:00,69.6,60.6,29.81,WNW,299,3.5,3.5,73,0.00,OVC,,0.00,WeatherDisplay:10.37,2013-07-23 12:55:00,
2013-07-23 06:01:00,69.5,60.8,29.81,WNW,294,3.5,3.5,74,0.00,OVC,,0.00,WeatherDisplay:10.37,2013-07-23 13:01:00,
2013-07-23 06:06:00,69.8,61.9,29.81,West,273,3.5,3.5,76,0.00,OVC,,0.00,WeatherDisplay:10.37,2013-07-23 13:06:00,
2013-07-23 06:11:00,70.2,61.9,29.81,West,273,3.5,3.5,75,0.00,OVC,,0.00,WeatherDisplay:10.37,2013-07-23 13:11:00,
2013-07-23 06:16:00,70.3,61.2,29.81,West,273,4.0,4.0,73,0.00,OVC,,0.00,WeatherDisplay:10.37,2013-07-23 13:16:00,
2013-07-23 06:21:00,70.2,61.1,29.81,West,265,4.0,4.0,73,0.00,OVC,,0.00,WeatherDisplay:10.37,2013-07-23 13:21:00,
2013-07-23 06:26:00,69.9,60.5,29.81,WSW,257,5.0,5.0,72,0.00,OVC,,0.00,WeatherDisplay:10.37,2013-07-23 13:26:00,
2013-07-23 06:31:00,70.0,60.2,29.81,WSW,252,4.6,4.6,71,0.00,OVC,,0.00,WeatherDisplay:10.37,2013-07-23 13:31:00,
2013-07-23 06:36:00,70.4,60.9,29.81,WSW,252,4.6,4.6,72,0.00,OVC,,0.00,WeatherDisplay:10.37,2013-07-23 13:36:00,
2013-07-23 06:41:00,70.9,60.6,29.82,SW,234,5.0,5.0,70,0.00,OVC,,0.00,WeatherDisplay:10.37,2013-07-23 13:41:00,
2013-07-23 06:46:00,71.4,60.7,29.82,SW,220,5.8,5.8,69,0.00,OVC,,0.00,WeatherDisplay:10.37,2013-07-23 13:46:00,
2013-07-23 06:52:00,71.7,60.6,29.82,SW,225,7.0,7.0,68,0.00,OVC,,0.00,WeatherDisplay:10.37,2013-07-23 13:52:00,
2013-07-23 06:57:00,72.0,60.0,29.82,SW,230,6.9,6.9,66,0.00,OVC,,0.00,WeatherDisplay:10.37,2013-07-23 13:57:00,
2013-07-23 07:02:00,72.4,59.5,29.82,SW,234,6.9,6.9,64,0.00,OVC,,0.00,WeatherDisplay:10.37,2013-07-23 14:02:00,
2013-07-23 07:07:00,72.9,58.7,29.82,SW,234,8.1,8.1,61,0.00,OVC,,0.00,WeatherDisplay:10.37,2013-07-23 14:07:00,
2013-07-23 07:12:00,73.7,56.5,29.82,SW,229,10.4,10.4,55,0.00,OVC,,0.00,WeatherDisplay:10.37,2013-07-23 14:12:00,
2013-07-23 07:17:00,74.2,56.5,29.82,SW,222,9.2,9.2,54,0.00,OVC,,0.00,WeatherDisplay:10.37,2013-07-23 14:17:00,
2013-07-23 07:23:00,74.7,56.4,29.82,SW,235,9.2,9.2,53,0.00,OVC,,0.00,WeatherDisplay:10.37,2013-07-23 14:23:00,
2013-07-23 07:28:00,75.2,56.4,29.82,SW,227,6.9,6.9,52,0.00,OVC,,0.00,WeatherDisplay:10.37,2013-07-23 14:28:00,
2013-07-23 07:33:00,75.5,56.6,29.82,SW,217,7.0,7.0,52,0.00,OVC,,0.00,WeatherDisplay:10.37,2013-07-23 14:33:00,
2013-07-23 07:38:00,76.0,57.1,29.82,SSW,201,8.1,8.1,52,0.00,OVC,,0.00,WeatherDisplay:10.37,2013-07-23 14:38:00,
2013-07-23 07:43:00,76.5,58.6,29.82,SSW,194,8.0,8.0,54,0.00,OVC,,0.00,WeatherDisplay:10.37,2013-07-23 14:43:00,
2013-07-23 07:48:00,76.8,58.4,29.82,SSW,194,7.0,7.0,53,0.00,OVC,,0.00,WeatherDisplay:10.37,2013-07-23 14:48:00,
2013-07-23 07:53:00,77.2,57.1,29.82,SSW,202,8.1,8.1,50,0.00,OVC,,0.00,WeatherDisplay:10.37,2013-07-23 14:53:00,
2013-07-23 07:59:00,77.6,56.9,29.82,SSW,201,9.2,9.2,49,0.00,OVC,,0.00,WeatherDisplay:10.37,2013-07-23 14:59:00,
2013-07-23 08:04:00,77.8,57.1,29.82,South,180,10.4,10.4,49,0.00,OVC,,0.00,WeatherDisplay:10.37,2013-07-23 15:04:00,
2013-07-23 08:09:00,78.0,57.3,29.82,SSW,196,9.2,9.2,49,0.00,OVC,,0.00,WeatherDisplay:10.37,2013-07-23 15:09:00,
2013-07-23 08:14:00,78.2,57.5,29.82,South,189,8.0,8.0,49,0.00,OVC,,0.00,WeatherDisplay:10.37,2013-07-23 15:14:00,
2013-07-23 08:19:00,78.6,57.8,29.82,SSW,194,8.1,8.1,49,0.00,OVC,,0.00,WeatherDisplay:10.37,2013-07-23 15:19:00,
2013-07-23 08:24:00,78.8,57.4,29.83,SSW,206,8.0,8.0,48,0.00,OVC,,0.00,WeatherDisplay:10.37,2013-07-23 15:24:00,
2013-07-23 08:29:00,78.8,59.1,29.83,West,260,4.6,4.6,51,0.00,OVC,,0.00,WeatherDisplay:10.37,2013-07-23 15:29:00,
2013-07-23 08:34:00,79.2,59.0,29.83,West,274,3.5,3.5,50,0.00,OVC,,0.00,WeatherDisplay:10.37,2013-07-23 15:34:00,
2013-07-23 08:39:00,79.6,59.3,29.83,SW,225,5.0,5.0,50,0.00,OVC,,0.00,WeatherDisplay:10.37,2013-07-23 15:39:00,
2013-07-23 08:45:00,79.9,59.0,29.83,SW,217,4.0,4.0,49,0.00,OVC,,0.00,WeatherDisplay:10.37,2013-07-23 15:45:00,
2013-07-23 08:50:00,80.0,59.2,29.83,SSW,206,2.0,4.0,49,0.00,CLR,,0.00,WeatherDisplay:10.37,2013-07-23 15:50:00,
2013-07-23 08:55:00,80.4,59.5,29.83,SSW,200,0.0,2.0,49,0.00,CLR,,0.00,WeatherDisplay:10.37,2013-07-23 15:55:00,
2013-07-23 09:00:00,80.9,59.4,29.83,SSE,153,5.0,7.0,48,0.00,CLR,,0.00,WeatherDisplay:10.37,2013-07-23 16:00:00,
2013-07-23 09:05:00,81.2,59.7,29.83,South,169,3.0,5.0,48,0.00,CLR,,0.00,WeatherDisplay:10.37,2013-07-23 16:05:00,
2013-07-23 09:10:00,81.3,59.1,29.83,SW,223,3.0,7.0,47,0.00,CLR,,0.00,WeatherDisplay:10.37,2013-07-23 16:10:00,
2013-07-23 09:15:00,81.4,59.2,29.83,WSW,254,1.0,7.0,47,0.00,CLR,,0.00,WeatherDisplay:10.37,2013-07-23 16:15:00,
2013-07-23 09:20:00,81.9,59.7,29.83,NW,306,3.5,3.5,47,0.00,OVC,,0.00,WeatherDisplay:10.37,2013-07-23 16:20:00,
2013-07-23 09:25:00,82.5,59.6,29.83,West,266,1.0,6.0,46,0.00,CLR,,0.00,WeatherDisplay:10.37,2013-07-23 16:25:00,
2013-07-23 09:30:00,82.1,59.3,29.83,WNW,289,4.6,4.6,46,0.00,OVC,,0.00,WeatherDisplay:10.37,2013-07-23 16:30:00,
2013-07-23 09:35:00,82.4,60.1,29.83,West,269,0.0,5.0,47,0.00,CLR,,0.00,WeatherDisplay:10.37,2013-07-23 16:35:00,
2013-07-23 09:40:00,83.2,60.3,29.83,SW,215,5.0,6.0,46,0.00,CLR,,0.00,WeatherDisplay:10.37,2013-07-23 16:40:00,
2013-07-23 09:45:00,83.2,60.3,29.83,SSW,192,1.0,6.0,46,0.00,CLR,,0.00,WeatherDisplay:10.37,2013-07-23 16:45:00,
2013-07-23 09:50:00,83.6,60.6,29.83,SSE,161,3.0,5.0,46,0.00,CLR,,0.00,WeatherDisplay:10.37,2013-07-23 16:50:00,
2013-07-23 09:55:00,83.5,60.6,29.83,SE,139,5.0,12.0,46,0.00,CLR,,0.00,WeatherDisplay:10.37,2013-07-23 16:55:00,
2013-07-23 10:00:00,83.5,60.5,29.82,ENE,63,11.5,11.5,46,0.00,OVC,,0.00,WeatherDisplay:10.37,2013-07-23 17:00:00,
2013-07-23 10:05:00,83.9,60.9,29.83,ENE,72,5.0,8.0,46,0.00,CLR,,0.00,WeatherDisplay:10.37,2013-07-23 17:05:00,
2013-07-23 10:10:00,84.3,61.3,29.83,ENE,71,7.0,9.0,46,0.00,CLR,,0.00,WeatherDisplay:10.37,2013-07-23 17:10:00,
2013-07-23 10:15:00,83.7,61.3,29.83,SE,124,6.0,10.0,47,0.00,CLR,,0.00,WeatherDisplay:10.37,2013-07-23 17:15:00,
2013-07-23 10:20:00,84.2,62.3,29.83,SSE,150,1.0,5.0,48,0.00,CLR,,0.00,WeatherDisplay:10.37,2013-07-23 17:20:00,
2013-07-23 10:25:00,84.7,62.2,29.83,WSW,239,5.0,7.0,47,0.00,CLR,,0.00,WeatherDisplay:10.37,2013-07-23 17:25:00,
2013-07-23 10:30:00,84.6,62.2,29.82,SW,223,6.0,7.0,47,0.00,CLR,,0.00,WeatherDisplay:10.37,2013-07-23 17:30:00,
2013-07-23 10:35:00,84.6,62.2,29.83,South,182,8.0,10.0,47,0.00,CLR,,0.00,WeatherDisplay:10.37,2013-07-23 17:35:00,
2013-07-23 10:40:00,84.7,62.8,29.82,SSE,162,9.0,12.0,48,0.00,CLR,,0.00,WeatherDisplay:10.37,2013-07-23 17:40:00,
2013-07-23 10:45:00,85.0,62.6,29.82,SE,134,2.0,12.0,47,0.00,CLR,,0.00,WeatherDisplay:10.37,2013-07-23 17:45:00,
2013-07-23 10:50:00,84.9,62.5,29.82,SE,140,7.0,12.0,47,0.00,CLR,,0.00,WeatherDisplay:10.37,2013-07-23 17:50:00,
2013-07-23 10:55:00,85.0,62.5,29.82,SSE,157,1.0,7.0,47,0.00,CLR,,0.00,WeatherDisplay:10.37,2013-07-23 17:55:00,
2013-07-23 11:00:00,87.4,62.8,29.82,NE,50,5.8,5.8,44,0.00,OVC,,0.00,WeatherDisplay:10.37,2013-07-23 18:00:00,
2013-07-23 11:05:00,88.7,62.7,29.82,NNE,31,3.0,6.0,42,0.00,CLR,,0.00,WeatherDisplay:10.37,2013-07-23 18:05:00,
2013-07-23 11:10:00,88.2,62.9,29.82,NE,51,2.0,7.0,43,0.00,CLR,,0.00,WeatherDisplay:10.37,2013-07-23 18:10:00,
2013-07-23 11:15:00,88.3,62.3,29.81,NW,325,3.0,8.0,42,0.00,CLR,,0.00,WeatherDisplay:10.37,2013-07-23 18:15:00,
2013-07-23 11:20:00,88.9,62.8,29.81,NNW,346,6.0,10.0,42,0.00,CLR,,0.00,WeatherDisplay:10.37,2013-07-23 18:20:00,
2013-07-23 11:25:00,89.7,62.9,29.81,NNE,15,1.0,7.0,41,0.00,CLR,,0.00,WeatherDisplay:10.37,2013-07-23 18:25:00,
2013-07-23 11:30:00,90.9,63.2,29.81,NNE,23,5.0,8.0,40,0.00,CLR,,0.00,WeatherDisplay:10.37,2013-07-23 18:30:00,
2013-07-23 11:35:00,89.8,62.2,29.81,ENE,64,6.0,9.0,40,0.00,CLR,,0.00,WeatherDisplay:10.37,2013-07-23 18:35:00,
2013-07-23 11:40:00,89.4,62.6,29.81,ENE,71,7.0,12.0,41,0.00,CLR,,0.00,WeatherDisplay:10.37,2013-07-23 18:40:00,
2013-07-23 11:45:00,88.8,62.0,29.81,ENE,68,2.0,10.0,41,0.00,CLR,,0.00,WeatherDisplay:10.37,2013-07-23 18:45:00,
2013-07-23 11:50:00,89.3,61.1,29.80,ENE,73,5.0,10.0,39,0.00,CLR,,0.00,WeatherDisplay:10.37,2013-07-23 18:50:00,
2013-07-23 11:55:00,89.1,61.6,29.80,East,96,9.2,9.2,40,0.00,OVC,,0.00,WeatherDisplay:10.37,2013-07-23 18:55:00,
2013-07-23 12:00:00,88.8,61.4,29.80,East,88,6.0,12.0,40,0.00,CLR,,0.00,WeatherDisplay:10.37,2013-07-23 19:00:00,
2013-07-23 12:05:00,89.3,61.1,29.80,ENE,71,9.2,9.2,39,0.00,OVC,,0.00,WeatherDisplay:10.37,2013-07-23 19:05:00,
2013-07-23 12:10:00,89.8,60.8,29.80,ESE,111,12.0,12.0,38,0.00,OVC,,0.00,WeatherDisplay:10.37,2013-07-23 19:10:00,
2013-07-23 12:15:00,89.4,60.5,29.79,ENE,65,5.0,5.0,38,0.00,CLR,,0.00,WeatherDisplay:10.37,2013-07-23 19:15:00,
2013-07-23 12:21:00,91.1,60.4,29.79,NNW,344,5.0,5.0,36,0.00,OVC,,0.00,WeatherDisplay:10.37,2013-07-23 19:21:00,
2013-07-23 12:26:00,92.0,59.6,29.79,South,171,12.0,12.0,34,0.00,OVC,,0.00,WeatherDisplay:10.37,2013-07-23 19:26:00,
2013-07-23 12:31:00,90.8,59.4,29.79,SSW,192,9.2,9.2,35,0.00,OVC,,0.00,WeatherDisplay:10.37,2013-07-23 19:31:00,
2013-07-23 12:36:00,90.6,59.2,29.78,SE,146,11.5,11.5,35,0.00,OVC,,0.00,WeatherDisplay:10.37,2013-07-23 19:36:00,
2013-07-23 12:42:00,90.7,60.1,29.78,ENE,57,4.0,4.0,36,0.00,OVC,,0.00,WeatherDisplay:10.37,2013-07-23 19:42:00,
2013-07-23 12:47:00,91.5,59.2,29.78,ENE,57,9.2,9.2,34,0.00,OVC,,0.00,WeatherDisplay:10.37,2013-07-23 19:47:00,
2013-07-23 12:52:00,91.7,59.3,29.78,SE,127,8.1,8.1,34,0.00,OVC,,0.00,WeatherDisplay:10.37,2013-07-23 19:52:00,
2013-07-23 12:57:00,91.8,59.4,29.78,WSW,240,9.2,9.2,34,0.00,OVC,,0.00,WeatherDisplay:10.37,2013-07-23 19:57:00,
2013-07-23 13:02:00,91.1,59.6,29.78,WSW,244,8.1,8.1,35,0.00,OVC,,0.00,WeatherDisplay:10.37,2013-07-23 20:02:00,
2013-07-23 13:08:00,91.7,60.2,29.77,ENE,76,11.5,11.5,35,0.00,OVC,,0.00,WeatherDisplay:10.37,2013-07-23 20:08:00,
2013-07-23 13:13:00,91.9,59.5,29.77,East,89,17.3,17.3,34,0.00,OVC,,0.00,WeatherDisplay:10.37,2013-07-23 20:13:00,
2013-07-23 13:19:00,91.9,59.5,29.77,ESE,113,12.7,12.7,34,0.00,OVC,,0.00,WeatherDisplay:10.37,2013-07-23 20:19:00,
2013-07-23 13:24:00,92.7,60.2,29.77,ESE,120,11.5,11.5,34,0.00,OVC,,0.00,WeatherDisplay:10.37,2013-07-23 20:24:00,
2013-07-23 13:29:00,92.7,60.2,29.76,NE,37,10.4,10.4,34,0.00,OVC,,0.00,WeatherDisplay:10.37,2013-07-23 20:29:00,
2013-07-23 13:34:00,92.8,59.5,29.76,South,171,10.4,10.4,33,0.00,OVC,,0.00,WeatherDisplay:10.37,2013-07-23 20:34:00,
2013-07-23 13:40:00,92.9,59.6,29.75,South,190,15.0,15.0,33,0.00,OVC,,0.00,WeatherDisplay:10.37,2013-07-23 20:40:00,
2013-07-23 13:45:00,93.3,59.0,29.75,East,98,19.6,19.6,32,0.00,OVC,,0.00,WeatherDisplay:10.37,2013-07-23 20:45:00,
2013-07-23 13:50:00,93.6,59.3,29.75,SE,144,18.4,18.4,32,0.00,OVC,,0.00,WeatherDisplay:10.37,2013-07-23 20:50:00,
2013-07-23 13:55:00,93.0,58.8,29.75,ESE,103,19.6,19.6,32,0.00,OVC,,0.00,WeatherDisplay:10.37,2013-07-23 20:55:00,
2013-07-23 14:00:00,92.8,59.5,29.75,SSE,147,17.3,17.3,33,0.00,OVC,,0.00,WeatherDisplay:10.37,2013-07-23 21:00:00,
2013-07-23 14:05:00,93.2,59.0,29.75,SSE,151,24.0,24.0,32,0.00,OVC,,0.00,WeatherDisplay:10.37,2013-07-23 21:05:00,
2013-07-23 14:11:00,92.7,59.4,29.75,South,184,19.6,19.6,33,0.00,OVC,,0.00,WeatherDisplay:10.37,2013-07-23 21:11:00,
2013-07-23 14:16:00,92.6,59.3,29.74,SSE,148,18.4,18.4,33,0.00,OVC,,0.00,WeatherDisplay:10.37,2013-07-23 21:16:00,
2013-07-23 14:21:00,93.4,59.1,29.74,SE,137,21.0,21.0,32,0.00,OVC,,0.00,WeatherDisplay:10.37,2013-07-23 21:21:00,
2013-07-23 14:26:00,92.6,59.3,29.74,South,173,19.6,19.6,33,0.00,OVC,,0.00,WeatherDisplay:10.37,2013-07-23 21:26:00,
2013-07-23 14:32:00,93.0,58.8,29.74,SSE,156,11.0,11.0,32,0.00,OVC,,0.00,WeatherDisplay:10.37,2013-07-23 21:32:00,
2013-07-23 14:37:00,93.6,59.3,29.74,SSE,153,27.0,27.0,32,0.00,OVC,,0.00,WeatherDisplay:10.37,2013-07-23 21:37:00,
2013-07-23 14:42:00,93.4,59.1,29.74,SSE,150,11.5,11.5,32,0.00,OVC,,0.00,WeatherDisplay:10.37,2013-07-23 21:42:00,
2013-07-23 14:48:00,93.5,59.2,29.74,ESE,111,17.3,17.3,32,0.00,OVC,,0.00,WeatherDisplay:10.37,2013-07-23 21:48:00,
2013-07-23 14:53:00,94.1,59.7,29.73,ESE,122,26.5,26.5,32,0.00,OVC,,0.00,WeatherDisplay:10.37,2013-07-23 21:53:00,
2013-07-23 14:58:00,94.0,58.8,29.73,SSE,156,26.5,26.5,31,0.00,OVC,,0.00,WeatherDisplay:10.37,2013-07-23 21:58:00,
2013-07-23 15:03:00,92.9,58.7,29.74,SSE,163,19.6,19.6,32,0.00,OVC,,0.00,WeatherDisplay:10.37,2013-07-23 22:03:00,
2013-07-23 15:08:00,93.1,58.9,29.73,South,177,26.0,26.0,32,0.00,OVC,,0.00,WeatherDisplay:10.37,2013-07-23 22:08:00,
2013-07-23 15:14:00,93.0,58.8,29.73,SE,138,23.0,23.0,32,0.00,OVC,,0.00,WeatherDisplay:10.37,2013-07-23 22:14:00,
2013-07-23 15:19:00,93.3,59.0,29.73,SE,145,25.3,25.3,32,0.00,OVC,,0.00,WeatherDisplay:10.37,2013-07-23 22:19:00,
2013-07-23 15:24:00,93.5,60.1,29.73,SSE,148,23.0,23.0,33,0.00,OVC,,0.00,WeatherDisplay:10.37,2013-07-23 22:24:00,
2013-07-23 15:29:00,93.2,59.0,29.73,SSE,150,26.5,26.5,32,0.00,OVC,,0.00,WeatherDisplay:10.37,2013-07-23 22:29:00,
2013-07-23 15:34:00,94.2,58.9,29.73,SSE,152,23.0,23.0,31,0.00,OVC,,0.00,WeatherDisplay:10.37,2013-07-23 22:34:00,
2013-07-23 15:39:00,93.8,58.6,29.73,SSE,157,25.3,25.3,31,0.00,OVC,,0.00,WeatherDisplay:10.37,2013-07-23 22:39:00,
2013-07-23 15:44:00,93.3,58.2,29.73,SSE,167,29.9,29.9,31,0.00,OVC,,0.00,WeatherDisplay:10.37,2013-07-23 22:44:00,
2013-07-23 15:49:00,93.5,59.2,29.73,SSE,147,26.5,26.5,32,0.00,OVC,,0.00,WeatherDisplay:10.37,2013-07-23 22:49:00,
2013-07-23 15:54:00,92.8,57.7,29.73,SE,143,28.0,28.0,31,0.00,OVC,,0.00,WeatherDisplay:10.37,2013-07-23 22:54:00,
2013-07-23 16:00:00,93.5,58.3,29.72,SSE,156,22.0,29.0,31,0.00,CLR,,0.00,WeatherDisplay:10.37,2013-07-23 23:00:00,
2013-07-23 16:05:00,93.4,59.1,29.72,SSE,156,21.0,30.0,32,0.00,CLR,,0.00,WeatherDisplay:10.37,2013-07-23 23:05:00,
2013-07-23 16:10:00,93.4,58.3,29.72,SSE,158,25.0,30.0,31,0.00,CLR,,0.00,WeatherDisplay:10.37,2013-07-23 23:10:00,
2013-07-23 16:15:00,93.0,57.9,29.72,SSE,155,25.0,31.0,31,0.00,CLR,,0.00,WeatherDisplay:10.37,2013-07-23 23:15:00,
2013-07-23 16:20:00,92.7,57.7,29.72,SSE,154,24.0,35.0,31,0.00,CLR,,0.00,WeatherDisplay:10.37,2013-07-23 23:20:00,
2013-07-23 16:25:00,92.9,57.8,29.72,SSE,160,26.0,30.0,31,0.00,CLR,,0.00,WeatherDisplay:10.37,2013-07-23 23:25:00,
2013-07-23 16:30:00,93.1,57.1,29.72,SSE,157,26.0,32.0,30,0.00,CLR,,0.00,WeatherDisplay:10.37,2013-07-23 23:30:00,
2013-07-23 16:35:00,92.7,57.7,29.71,SSE,156,28.0,32.0,31,0.00,,,0.00,WeatherDisplay:10.37,2013-07-23 23:35:00,
2013-07-23 16:40:00,92.4,57.4,29.71,SSE,153,29.0,39.0,31,0.00,,,0.00,WeatherDisplay:10.37,2013-07-23 23:40:00,
2013-07-23 16:45:00,92.1,57.1,29.71,SSE,167,33.4,33.4,31,0.00,OVC,,0.00,WeatherDisplay:10.37,2013-07-23 23:45:00,
2013-07-23 16:50:00,92.2,58.1,29.71,SSE,157,31.1,31.1,32,0.00,OVC,,0.00,WeatherDisplay:10.37,2013-07-23 23:50:00,
2013-07-23 16:56:00,92.3,57.3,29.71,SE,146,34.5,34.5,31,0.00,OVC,,0.00,WeatherDisplay:10.37,2013-07-23 23:56:00,
2013-07-23 17:01:00,92.2,57.2,29.71,SSE,168,33.4,33.4,31,0.00,OVC,,0.00,WeatherDisplay:10.37,2013-07-24 00:01:00,
2013-07-23 17:06:00,92.2,57.2,29.70,SSE,163,34.5,34.5,31,0.00,OVC,,0.00,WeatherDisplay:10.37,2013-07-24 00:06:00,
2013-07-23 17:11:00,93.1,57.1,29.70,South,175,33.0,33.0,30,0.00,OVC,,0.00,WeatherDisplay:10.37,2013-07-24 00:11:00,
2013-07-23 17:17:00,93.0,57.0,29.70,SSE,165,33.4,33.4,30,0.00,OVC,,0.00,WeatherDisplay:10.37,2013-07-24 00:17:00,
2013-07-23 17:22:00,92.7,57.6,29.70,SSE,161,31.1,31.1,31,0.00,OVC,,0.00,WeatherDisplay:10.37,2013-07-24 00:22:00,
2013-07-23 17:28:00,93.1,56.1,29.70,South,176,28.8,28.8,29,0.00,OVC,,0.00,WeatherDisplay:10.37,2013-07-24 00:28:00,
2013-07-23 17:33:00,92.6,56.6,29.70,South,179,32.2,32.2,30,0.00,OVC,,0.00,WeatherDisplay:10.37,2013-07-24 00:33:00,
2013-07-23 17:39:00,92.4,57.4,29.70,SSE,166,31.1,31.1,31,0.00,OVC,,0.00,WeatherDisplay:10.37,2013-07-24 00:39:00,
2013-07-23 17:44:00,91.4,56.5,29.70,SSE,151,38.0,38.0,31,0.00,OVC,,0.00,WeatherDisplay:10.37,2013-07-24 00:44:00,
2013-07-23 17:49:00,91.7,56.8,29.70,South,182,34.5,34.5,31,0.00,OVC,,0.00,WeatherDisplay:10.37,2013-07-24 00:49:00,
2013-07-23 17:55:00,91.7,55.9,29.70,South,169,25.0,35.0,30,0.00,CLR,,0.00,WeatherDisplay:10.37,2013-07-24 00:55:00,
2013-07-23 18:00:00,91.3,56.5,29.71,South,173,24.0,35.0,31,0.00,CLR,,0.00,WeatherDisplay:10.37,2013-07-24 01:00:00,
2013-07-23 18:05:00,91.0,56.2,29.71,South,172,24.0,33.0,31,0.00,CLR,,0.00,WeatherDisplay:10.37,2013-07-24 01:05:00,
2013-07-23 18:10:00,90.9,55.2,29.70,South,182,33.0,33.0,30,0.00,OVC,,0.00,WeatherDisplay:10.37,2013-07-24 01:10:00,
2013-07-23 18:15:00,90.4,54.7,29.71,South,185,31.1,31.1,30,0.00,OVC,,0.00,WeatherDisplay:10.37,2013-07-24 01:15:00,
2013-07-23 18:21:00,90.7,55.0,29.71,South,185,31.1,31.1,30,0.00,OVC,,0.00,WeatherDisplay:10.37,2013-07-24 01:21:00,
2013-07-23 18:26:00,89.9,54.3,29.71,South,172,34.5,34.5,30,0.00,OVC,,0.00,WeatherDisplay:10.37,2013-07-24 01:26:00,
2013-07-23 18:31:00,90.2,54.6,29.71,South,175,28.8,28.8,30,0.00,OVC,,0.00,WeatherDisplay:10.37,2013-07-24 01:31:00,
2013-07-23 18:36:00,89.6,54.1,29.71,South,175,34.5,34.5,30,0.00,OVC,,0.00,WeatherDisplay:10.37,2013-07-24 01:36:00,
2013-07-23 18:42:00,90.6,56.7,29.71,SSW,193,29.9,29.9,32,0.00,OVC,,0.00,WeatherDisplay:10.37,2013-07-24 01:42:00,
2013-07-23 18:47:00,90.5,56.6,29.71,South,183,29.9,29.9,32,0.00,OVC,,0.00,WeatherDisplay:10.37,2013-07-24 01:47:00,
2013-07-23 18:52:00,90.5,56.6,29.71,South,189,31.0,31.0,32,0.00,OVC,,0.00,WeatherDisplay:10.37,2013-07-24 01:52:00,
2013-07-23 18:57:00,90.5,56.6,29.71,SSW,197,33.4,33.4,32,0.00,OVC,,0.00,WeatherDisplay:10.37,2013-07-24 01:57:00,
2013-07-23 19:03:00,90.6,56.7,29.71,SW,232,21.9,21.9,32,0.00,OVC,,0.00,WeatherDisplay:10.37,2013-07-24 02:03:00,
2013-07-23 19:08:00,90.6,55.8,29.71,SW,216,19.6,19.6,31,0.00,OVC,,0.00,WeatherDisplay:10.37,2013-07-24 02:08:00,
2013-07-23 19:13:00,90.2,55.5,29.71,SW,234,20.7,20.7,31,0.00,OVC,,0.00,WeatherDisplay:10.37,2013-07-24 02:13:00,
2013-07-23 19:19:00,90.1,55.4,29.71,WSW,239,23.0,23.0,31,0.00,OVC,,0.00,WeatherDisplay:10.37,2013-07-24 02:19:00,
2013-07-23 19:24:00,89.7,55.0,29.71,WSW,241,20.7,20.7,31,0.00,OVC,,0.00,WeatherDisplay:10.37,2013-07-24 02:24:00,
2013-07-23 19:29:00,89.2,54.6,29.71,SW,225,21.0,21.0,31,0.00,OVC,,0.00,WeatherDisplay:10.37,2013-07-24 02:29:00,
2013-07-23 19:35:00,89.0,54.4,29.71,SW,215,19.6,19.6,31,0.00,OVC,,0.00,WeatherDisplay:10.37,2013-07-24 02:35:00,
2013-07-23 19:40:00,88.6,55.0,29.71,SW,223,18.4,18.4,32,0.00,OVC,,0.00,WeatherDisplay:10.37,2013-07-24 02:40:00,
2013-07-23 19:45:00,88.3,54.7,29.71,SSW,206,17.0,17.0,32,0.00,OVC,,0.00,WeatherDisplay:10.37,2013-07-24 02:45:00,
2013-07-23 19:50:00,87.7,54.2,29.72,SSW,208,17.3,17.3,32,0.00,OVC,,0.00,WeatherDisplay:10.37,2013-07-24 02:50:00,
2013-07-23 19:55:00,87.2,54.6,29.72,South,191,18.0,18.0,33,0.00,OVC,,0.00,WeatherDisplay:10.37,2013-07-24 02:55:00,
2013-07-23 20:00:00,87.1,54.5,29.72,South,182,19.6,19.6,33,0.00,OVC,,0.00,WeatherDisplay:10.37,2013-07-24 03:00:00,
2013-07-23 20:06:00,86.8,54.2,29.72,SSW,201,18.4,18.4,33,0.00,OVC,,0.00,WeatherDisplay:10.37,2013-07-24 03:06:00,
2013-07-23 20:11:00,86.3,53.8,29.72,SSW,192,19.6,19.6,33,0.00,OVC,,0.00,WeatherDisplay:10.37,2013-07-24 03:11:00,
2013-07-23 20:16:00,86.2,53.7,29.72,SSW,200,18.4,18.4,33,0.00,OVC,,0.00,WeatherDisplay:10.37,2013-07-24 03:16:00,
2013-07-23 20:22:00,86.0,53.5,29.73,SSW,198,17.0,17.0,33,0.00,OVC,,0.00,WeatherDisplay:10.37,2013-07-24 03:22:00,
2013-07-23 20:27:00,85.8,54.2,29.73,SSW,204,18.0,18.0,34,0.00,OVC,,0.00,WeatherDisplay:10.37,2013-07-24 03:27:00,
2013-07-23 20:32:00,85.5,53.9,29.73,SSW,207,17.3,17.3,34,0.00,OVC,,0.00,WeatherDisplay:10.37,2013-07-24 03:32:00,
2013-07-23 20:37:00,85.1,53.6,29.73,SSW,206,11.5,11.5,34,0.00,OVC,,0.00,WeatherDisplay:10.37,2013-07-24 03:37:00,
2013-07-23 20:43:00,85.1,53.6,29.74,SSW,213,17.3,17.3,34,0.00,OVC,,0.00,WeatherDisplay:10.37,2013-07-24 03:43:00,
2013-07-23 20:48:00,85.1,53.6,29.74,SW,225,18.4,18.4,34,0.00,OVC,,0.00,WeatherDisplay:10.37,2013-07-24 03:48:00,
2013-07-23 20:53:00,85.2,52.8,29.74,SSW,201,15.0,15.0,33,0.00,OVC,,0.00,WeatherDisplay:10.37,2013-07-24 03:53:00,
2013-07-23 20:58:00,84.9,52.6,29.74,SSW,194,9.2,9.2,33,0.00,OVC,,0.00,WeatherDisplay:10.37,2013-07-24 03:58:00,
2013-07-23 21:01:00,84.7,52.4,29.74,South,173,3.5,3.5,33,0.00,OVC,,0.00,WeatherDisplay:10.37,2013-07-24 04:01:00,
2013-07-23 21:04:00,84.4,52.1,29.74,SSW,200,11.5,11.5,33,0.00,OVC,,0.00,WeatherDisplay:10.37,2013-07-24 04:04:00,
2013-07-23 21:09:00,84.4,52.1,29.74,SW,227,11.5,11.5,33,0.00,OVC,,0.00,WeatherDisplay:10.37,2013-07-24 04:09:00,
2013-07-23 21:15:00,84.4,52.1,29.74,SW,228,11.5,11.5,33,0.00,OVC,,0.00,WeatherDisplay:10.37,2013-07-24 04:15:00,
2013-07-23 21:20:00,83.9,51.7,29.75,SW,224,3.5,3.5,33,0.00,OVC,,0.00,WeatherDisplay:10.37,2013-07-24 04:20:00,
2013-07-23 21:25:00,84.1,51.9,29.75,SW,214,1.0,3.0,33,0.00,CLR,,0.00,WeatherDisplay:10.37,2013-07-24 04:25:00,
2013-07-23 21:30:00,83.9,51.7,29.75,South,180,2.0,7.0,33,0.00,CLR,,0.00,WeatherDisplay:10.37,2013-07-24 04:30:00,
2013-07-23 21:35:00,83.5,52.2,29.75,South,190,5.0,9.0,34,0.00,CLR,,0.00,WeatherDisplay:10.37,2013-07-24 04:35:00,
2013-07-23 21:40:00,83.6,51.5,29.75,South,180,6.0,8.0,33,0.00,CLR,,0.00,WeatherDisplay:10.37,2013-07-24 04:40:00,
2013-07-23 21:45:00,83.7,52.4,29.75,South,182,9.0,16.0,34,0.00,CLR,,0.00,WeatherDisplay:10.37,2013-07-24 04:45:00,
2013-07-23 21:50:00,84.1,51.9,29.75,South,175,8.0,17.0,33,0.00,CLR,,0.00,WeatherDisplay:10.37,2013-07-24 04:50:00,
2013-07-23 21:55:00,84.7,52.4,29.75,SSE,155,5.8,5.8,33,0.00,OVC,,0.00,WeatherDisplay:10.37,2013-07-24 04:55:00,
2013-07-23 22:00:00,84.0,51.8,29.76,SSE,150,9.2,9.2,33,0.00,OVC,,0.00,WeatherDisplay:10.37,2013-07-24 05:00:00,
2013-07-23 22:05:00,84.2,52.8,29.75,SSW,203,16.1,16.1,34,0.00,OVC,,0.00,WeatherDisplay:10.37,2013-07-24 05:05:00,
2013-07-23 22:10:00,84.3,52.1,29.75,SE,145,5.0,5.0,33,0.00,OVC,,0.00,WeatherDisplay:10.37,2013-07-24 05:10:00,
2013-07-23 22:16:00,84.4,52.1,29.75,SSE,152,10.4,10.4,33,0.00,OVC,,0.00,WeatherDisplay:10.37,2013-07-24 05:16:00,
2013-07-23 22:21:00,83.4,52.1,29.75,ESE,115,9.2,9.2,34,0.00,OVC,,0.00,WeatherDisplay:10.37,2013-07-24 05:21:00,
2013-07-23 22:26:00,82.9,52.4,29.75,ESE,123,8.1,8.1,35,0.00,OVC,,0.00,WeatherDisplay:10.37,2013-07-24 05:26:00,
2013-07-23 22:31:00,82.4,52.0,29.75,SE,126,9.0,9.0,35,0.00,OVC,,0.00,WeatherDisplay:10.37,2013-07-24 05:31:00,
2013-07-23 22:36:00,82.2,52.6,29.76,SE,138,9.2,9.2,36,0.00,OVC,,0.00,WeatherDisplay:10.37,2013-07-24 05:36:00,
2013-07-23 22:42:00,81.5,52.0,29.76,SSE,155,6.0,6.0,36,0.00,OVC,,0.00,WeatherDisplay:10.37,2013-07-24 05:42:00,
2013-07-23 22:47:00,82.1,52.5,29.76,SSE,152,7.0,7.0,36,0.00,OVC,,0.00,WeatherDisplay:10.37,2013-07-24 05:47:00,
2013-07-23 22:52:00,82.0,52.4,29.76,SE,145,5.8,5.8,36,0.00,OVC,,0.00,WeatherDisplay:10.37,2013-07-24 05:52:00,
2013-07-23 22:57:00,81.6,52.8,29.76,South,182,9.2,9.2,37,0.00,OVC,,0.00,WeatherDisplay:10.37,2013-07-24 05:57:00,
2013-07-23 23:02:00,82.0,53.2,29.76,South,178,10.4,10.4,37,0.00,OVC,,0.00,WeatherDisplay:10.37,2013-07-24 06:02:00,
2013-07-23 23:07:00,82.1,53.2,29.76,South,190,6.9,6.9,37,0.00,CLR,,0.00,WeatherDisplay:10.37,2013-07-24 06:07:00,
2013-07-23 23:12:00,81.5,52.0,29.76,SW,232,3.5,3.5,36,0.00,CLR,,0.00,WeatherDisplay:10.37,2013-07-24 06:12:00,
2013-07-23 23:17:00,80.9,52.9,29.76,NW,311,3.5,3.5,38,0.00,CLR,,0.00,WeatherDisplay:10.37,2013-07-24 06:17:00,
2013-07-23 23:22:00,80.4,51.0,29.76,North,350,5.0,5.0,36,0.00,CLR,,0.00,WeatherDisplay:10.37,2013-07-24 06:22:00,
2013-07-23 23:27:00,79.1,52.0,29.76,North,351,3.5,3.5,39,0.00,CLR,,0.00,WeatherDisplay:10.37,2013-07-24 06:27:00,
2013-07-23 23:32:00,79.0,52.6,29.76,NE,40,2.3,2.3,40,0.00,CLR,,0.00,WeatherDisplay:10.37,2013-07-24 06:32:00,
2013-07-23 23:37:00,78.5,51.5,29.76,North,355,4.0,4.0,39,0.00,CLR,,0.00,WeatherDisplay:10.37,2013-07-24 06:37:00,
2013-07-23 23:42:00,77.2,51.0,29.76,NNW,343,4.6,4.6,40,0.00,CLR,,0.00,WeatherDisplay:10.37,2013-07-24 06:42:00,
2013-07-23 23:47:00,75.9,51.2,29.76,NNW,333,5.0,5.0,42,0.00,CLR,,0.00,WeatherDisplay:10.37,2013-07-24 06:47:00,
2013-07-23 23:52:00,75.9,52.4,29.76,NNW,348,5.0,5.0,44,0.00,CLR,,0.00,WeatherDisplay:10.37,2013-07-24 06:52:00,
2013-07-23 23:58:00,76.7,52.5,29.76,NNW,347,4.6,4.6,43,0.00,CLR,,0.00,WeatherDisplay:10.37,2013-07-24 06:58:00,